»·PEaware :: N9622C KLAX-KSAN

N9622C :: KLAX-KSAN

FLIGHT INFORMATION

Flight Status: Arrived
Operator: Privately registered:
United States
More flights under this callsign
Pilot: Michael D. (17574)
Aircraft: CESSNA 172 SKYHAWK
(C172)
More flights by this aircraft type
Origin: KLAX Los Angeles Intl
United States
Destination: KSAN San Diego Intl-Lindbergh
United States
More flights between these airports :: More routes between these airports
Route: +
File this flight plan on PilotEdge
Remarks: TEC route LAXN64 - CAT 11
Altitude:
(Current/Filed)
5,000ft
Speed:
(Current/Filed)
115kts
Departed: 01-Jan-18 09:07 PM
Arrived: 01-Jan-18 10:13 PM
Distance/Time
Traveled:
95nm/1:06
Distance/Time
To Go:
Arrived

Flight Plot

Page will automatically refresh every two minutes.


Map Options




Map Legend


Flown Route
Filed Route
Departure Airport
Arrival Airport
Navaid (VOR, NDB)
Fix

Horizontal Profiles

Position Reports

Time Latitude Longitude Heading Altitude Ground
Speed
01-Jan-18 20:19 33.932738 -118.399122 21 109ft 0kts
01-Jan-18 20:20 33.932738 -118.399122 21 109ft 0kts
01-Jan-18 20:21 33.932738 -118.399122 21 109ft 0kts
01-Jan-18 20:22 33.932738 -118.399122 21 109ft 0kts
01-Jan-18 20:23 33.932738 -118.399122 21 109ft 0kts
01-Jan-18 20:24 33.932738 -118.399122 21 109ft 0kts
01-Jan-18 20:25 33.932738 -118.399122 21 109ft 0kts
01-Jan-18 20:26 33.932738 -118.399122 21 109ft 0kts
01-Jan-18 20:27 33.932738 -118.399122 21 109ft 0kts
01-Jan-18 20:28 33.932738 -118.399122 21 109ft 0kts
01-Jan-18 20:29 33.932738 -118.399122 21 109ft 0kts
01-Jan-18 20:30 33.932738 -118.399122 21 109ft 0kts
01-Jan-18 20:31 33.932738 -118.399122 21 109ft 0kts
01-Jan-18 20:32 33.932738 -118.399122 21 109ft 0kts
01-Jan-18 20:33 33.932738 -118.399122 21 109ft 0kts
01-Jan-18 20:34 33.932738 -118.399122 21 109ft 0kts
01-Jan-18 20:35 33.932738 -118.399122 21 109ft 0kts
01-Jan-18 20:36 33.932738 -118.399122 21 109ft 0kts
01-Jan-18 20:37 33.932738 -118.399122 21 109ft 0kts
01-Jan-18 20:38 33.932738 -118.399122 21 109ft 0kts
01-Jan-18 20:39 33.932738 -118.399122 21 109ft 0kts
01-Jan-18 20:40 33.932738 -118.399122 21 109ft 0kts
01-Jan-18 20:41 33.932738 -118.399122 21 109ft 0kts
01-Jan-18 20:42 33.932738 -118.399122 21 109ft 0kts
01-Jan-18 20:43 33.932738 -118.399122 21 109ft 0kts
01-Jan-18 20:44 33.932738 -118.399122 21 109ft 0kts
01-Jan-18 20:45 33.932738 -118.399122 21 109ft 0kts
01-Jan-18 20:46 33.932738 -118.399122 21 109ft 0kts
01-Jan-18 20:47 33.932738 -118.399122 21 109ft 0kts
01-Jan-18 20:48 33.932738 -118.399122 21 109ft 0kts
01-Jan-18 20:49 33.932738 -118.399122 21 109ft 0kts
01-Jan-18 20:50 33.932738 -118.399122 21 109ft 0kts
01-Jan-18 20:51 33.932738 -118.399122 21 109ft 0kts
01-Jan-18 20:52 33.932738 -118.399122 21 109ft 0kts
01-Jan-18 20:53 33.932738 -118.399122 21 109ft 0kts
01-Jan-18 20:54 33.932738 -118.399122 21 109ft 0kts
01-Jan-18 20:55 33.932738 -118.399122 21 109ft 0kts
01-Jan-18 20:56 33.932738 -118.399121 21 109ft 0kts
01-Jan-18 20:57 33.932738 -118.399121 21 109ft 0kts
01-Jan-18 20:58 33.932738 -118.399121 21 109ft 0kts
01-Jan-18 20:59 33.932738 -118.399121 21 109ft 0kts
01-Jan-18 21:00 33.932738 -118.399121 21 109ft 0kts
01-Jan-18 21:01 33.932738 -118.399121 21 109ft 0kts
01-Jan-18 21:02 33.932738 -118.399121 21 109ft 0kts
01-Jan-18 21:03 33.932738 -118.399121 21 109ft 0kts
01-Jan-18 21:04 33.932738 -118.399121 21 109ft 0kts
01-Jan-18 21:05 33.932738 -118.399121 21 109ft 0kts
01-Jan-18 21:06 33.932738 -118.399121 21 109ft 0kts
01-Jan-18 21:07 33.932738 -118.399121 21 109ft 0kts
01-Jan-18 21:08 33.933087 -118.398995 19 109ft 9kts
01-Jan-18 21:09 33.934911 -118.394640 83 109ft 30kts
01-Jan-18 21:10 33.935917 -118.384817 82 109ft 29kts
01-Jan-18 21:11 33.936454 -118.382775 2 109ft 0kts
01-Jan-18 21:12 33.936454 -118.382775 2 109ft 0kts
01-Jan-18 21:13 33.937012 -118.386154 263 109ft 62kts
01-Jan-18 21:14 33.934005 -118.413305 265 1007ft 84kts
01-Jan-18 21:15 33.932147 -118.442059 264 1951ft 81kts
01-Jan-18 21:16 33.930597 -118.471716 267 2502ft 111kts
01-Jan-18 21:17 33.926620 -118.511295 231 2499ft 124kts
01-Jan-18 21:18 33.899700 -118.500125 160 2494ft 125kts
01-Jan-18 21:19 33.865322 -118.493692 172 2499ft 126kts
01-Jan-18 21:20 33.831301 -118.487748 172 2501ft 122kts
01-Jan-18 21:21 33.801294 -118.482047 171 3314ft 107kts
01-Jan-18 21:22 33.771754 -118.476119 171 3998ft 109kts
01-Jan-18 21:23 33.741697 -118.469901 171 4633ft 110kts
01-Jan-18 21:24 33.710282 -118.463637 171 5003ft 126kts
01-Jan-18 21:25 33.689831 -118.433057 101 5003ft 134kts
01-Jan-18 21:26 33.687022 -118.388884 88 5000ft 128kts
01-Jan-18 21:27 33.694007 -118.349865 58 5000ft 119kts
01-Jan-18 21:28 33.707544 -118.321144 57 4999ft 118kts
01-Jan-18 21:29 33.721647 -118.285595 69 4999ft 118kts
01-Jan-18 21:30 33.716914 -118.239691 100 4999ft 120kts
01-Jan-18 21:31 33.707224 -118.201656 131 4995ft 121kts
01-Jan-18 21:32 33.685859 -118.179708 138 4999ft 121kts
01-Jan-18 21:33 33.659941 -118.153801 138 4999ft 121kts
01-Jan-18 21:34 33.629782 -118.123802 138 4999ft 120kts
01-Jan-18 21:35 33.612472 -118.098929 125 4999ft 119kts
01-Jan-18 21:36 33.590053 -118.069533 133 4999ft 119kts
01-Jan-18 21:37 33.565856 -118.042356 136 4999ft 119kts
01-Jan-18 21:38 33.541003 -118.015677 136 4999ft 119kts
01-Jan-18 21:39 33.516700 -117.989940 137 4999ft 119kts
01-Jan-18 21:40 33.491754 -117.963642 137 4999ft 119kts
01-Jan-18 21:41 33.466759 -117.937334 137 4999ft 119kts
01-Jan-18 21:42 33.441821 -117.911112 137 4999ft 119kts
01-Jan-18 21:43 33.416917 -117.884940 137 5001ft 119kts
01-Jan-18 21:44 33.391901 -117.858684 137 5002ft 119kts
01-Jan-18 21:45 33.367073 -117.832644 137 5003ft 119kts
01-Jan-18 21:46 33.342095 -117.806465 137 5005ft 119kts
01-Jan-18 21:47 33.317212 -117.780403 137 5007ft 119kts
01-Jan-18 21:48 33.292254 -117.754287 137 5008ft 119kts
01-Jan-18 21:49 33.267262 -117.728155 137 5009ft 119kts
01-Jan-18 21:50 33.242232 -117.702004 137 5009ft 119kts
01-Jan-18 21:51 33.217276 -117.675949 137 5009ft 119kts
01-Jan-18 21:52 33.192273 -117.649935 137 5004ft 119kts
01-Jan-18 21:53 33.167183 -117.623716 137 4905ft 122kts
01-Jan-18 21:54 33.141257 -117.596707 138 4317ft 123kts
01-Jan-18 21:55 33.115492 -117.569941 138 3772ft 122kts
01-Jan-18 21:56 33.089851 -117.543461 138 3244ft 121kts
01-Jan-18 21:57 33.073424 -117.512315 101 2999ft 106kts
01-Jan-18 21:58 33.067447 -117.479105 101 3001ft 104kts
01-Jan-18 21:59 33.060996 -117.443130 101 2846ft 117kts
01-Jan-18 22:00 33.054180 -117.405194 101 2496ft 109kts
01-Jan-18 22:01 33.048157 -117.371920 100 2696ft 100kts
01-Jan-18 22:02 33.041889 -117.341117 119 3421ft 101kts
01-Jan-18 22:03 33.013249 -117.324603 164 3492ft 126kts
01-Jan-18 22:04 32.982122 -117.314750 164 3493ft 110kts
01-Jan-18 22:05 32.952698 -117.305508 164 3495ft 109kts
01-Jan-18 22:06 32.923393 -117.296331 164 3496ft 108kts
01-Jan-18 22:07 32.896617 -117.286771 159 3497ft 108kts
01-Jan-18 22:08 32.869508 -117.271837 149 3498ft 108kts
01-Jan-18 22:09 32.843474 -117.254159 149 3508ft 108kts
01-Jan-18 22:10 32.820566 -117.231711 132 3509ft 108kts
01-Jan-18 22:11 32.800058 -117.205726 132 3508ft 108kts
01-Jan-18 22:12 32.776361 -117.185307 174 2626ft 103kts
01-Jan-18 22:13 32.748558 -117.178927 132 1407ft 95kts
01-Jan-18 22:14 32.742009 -117.155473 97 1209ft 66kts
01-Jan-18 22:15 32.740073 -117.131897 91 1357ft 76kts
01-Jan-18 22:16 32.727803 -117.119031 190 1556ft 78kts
01-Jan-18 22:17 32.722504 -117.140676 275 1081ft 75kts
01-Jan-18 22:18 32.727456 -117.164399 286 422ft 72kts
01-Jan-18 22:19 32.732189 -117.183813 300 17ft 22kts
01-Jan-18 22:20 32.733130 -117.184208 14 17ft 0kts
01-Jan-18 22:21 32.733130 -117.184208 14 17ft 0kts
01-Jan-18 22:22 32.733130 -117.184208 14 17ft 0kts
01-Jan-18 22:23 32.732483 -117.180041 109 16ft 30kts
01-Jan-18 22:24 32.733042 -117.179283 274 17ft 0kts
01-Jan-18 22:25 32.733042 -117.179283 274 17ft 0kts
01-Jan-18 22:26 32.733042 -117.179283 274 17ft 0kts
01-Jan-18 22:27 32.733098 -117.183044 282 18ft 21kts
01-Jan-18 22:28 32.735088 -117.187888 292 18ft 0kts
01-Jan-18 22:29 32.735064 -117.187922 197 18ft 0kts
01-Jan-18 22:30 32.735064 -117.187922 197 18ft 0kts
01-Jan-18 22:31 32.735064 -117.187922 197 18ft 0kts
01-Jan-18 22:32 32.735064 -117.187922 197 18ft 0kts

Navigation Log

Ident Type
Flight plan parsing failed, navigation log unavailable